createdAt,value
2023-01-17T00:02:20.607Z,10.38
2023-01-17T00:05:06.749Z,10.82
2023-01-17T00:07:53.092Z,14.25
2023-01-17T00:10:23.943Z,11.13
2023-01-17T00:12:54.577Z,21.80
2023-01-17T00:15:23.641Z,18.75
2023-01-17T00:17:51.932Z,14.48
2023-01-17T00:20:49.877Z,15.32
2023-01-17T00:26:06.973Z,9.90
2023-01-17T00:28:37.007Z,16.40
2023-01-17T00:31:05.770Z,12.20
2023-01-17T00:33:33.577Z,13.68
2023-01-17T00:36:04.450Z,15.15
2023-01-17T00:38:34.290Z,11.05
2023-01-17T00:41:05.775Z,16.00
2023-01-17T00:43:52.445Z,12.32
2023-01-17T00:46:39.776Z,13.07
2023-01-17T00:52:12.139Z,14.80
2023-01-17T00:54:58.157Z,13.63
2023-01-17T00:57:43.987Z,15.10
2023-01-17T01:00:31.099Z,11.88
2023-01-17T01:03:16.890Z,20.65
2023-01-17T01:06:02.803Z,18.95
2023-01-17T01:08:49.132Z,13.75
2023-01-17T01:11:38.946Z,18.23
2023-01-17T01:14:28.573Z,24.20
2023-01-17T01:17:14.438Z,15.23
2023-01-17T01:20:00.456Z,15.20
2023-01-17T01:22:46.531Z,14.23
2023-01-17T01:25:32.378Z,16.50
2023-01-17T01:28:26.099Z,14.60
2023-01-17T01:31:11.770Z,13.70
2023-01-17T01:33:39.160Z,14.90
2023-01-17T01:36:09.004Z,12.85
2023-01-17T01:38:36.561Z,12.05
2023-01-17T01:41:04.458Z,23.15
2023-01-17T01:43:44.877Z,14.90
2023-01-17T01:46:34.433Z,18.73
2023-01-17T01:49:11.914Z,17.08
2023-01-17T01:51:45.658Z,17.67
2023-01-17T01:54:23.815Z,12.65
2023-01-17T01:56:53.810Z,14.98
2023-01-17T01:59:22.857Z,19.60
2023-01-17T02:01:53.031Z,14.40
2023-01-17T02:04:21.551Z,12.13
2023-01-17T02:07:04.036Z,11.80
2023-01-17T02:09:31.307Z,13.02
2023-01-17T02:11:59.168Z,14.80
2023-01-17T02:14:26.654Z,16.05
2023-01-17T02:17:01.263Z,10.50
2023-01-17T02:20:03.281Z,24.70
2023-01-17T02:23:08.843Z,15.65
2023-01-17T02:25:54.522Z,9.27
2023-01-17T02:28:36.840Z,14.30
2023-01-17T02:31:18.324Z,11.65
2023-01-17T02:33:55.350Z,15.85
2023-01-17T02:39:24.960Z,11.48
2023-01-17T02:41:59.674Z,10.40
2023-01-17T02:44:26.963Z,15.32
2023-01-17T02:46:56.427Z,11.30
2023-01-17T02:49:30.349Z,11.73
2023-01-17T02:52:00.803Z,9.90
2023-01-17T02:54:44.303Z,17.60
2023-01-17T02:57:14.732Z,18.17
2023-01-17T02:59:58.336Z,15.18
2023-01-17T03:03:07.797Z,13.88
2023-01-17T03:06:01.033Z,14.95
2023-01-17T03:08:29.155Z,14.10
2023-01-17T03:10:56.968Z,9.68
2023-01-17T03:13:24.341Z,8.00
2023-01-17T03:15:51.800Z,12.55
2023-01-17T03:18:19.243Z,11.40
2023-01-17T03:20:46.604Z,11.48
2023-01-17T03:23:13.923Z,9.50
2023-01-17T03:25:41.608Z,11.68
2023-01-17T03:28:09.295Z,9.20
2023-01-17T03:30:36.810Z,9.82
2023-01-17T03:33:04.170Z,11.95
2023-01-17T03:35:31.425Z,18.75
2023-01-17T03:37:58.897Z,12.00
2023-01-17T03:40:26.284Z,8.05
2023-01-17T03:42:53.586Z,10.68
2023-01-17T03:45:20.948Z,14.00
2023-01-17T03:47:48.189Z,9.93
2023-01-17T03:50:15.666Z,13.38
2023-01-17T03:52:42.934Z,9.90
2023-01-17T03:55:10.805Z,10.10
2023-01-17T03:57:38.670Z,8.55
2023-01-17T04:00:06.789Z,12.52
2023-01-17T04:02:34.302Z,15.98
2023-01-17T04:05:01.798Z,11.57
2023-01-17T04:07:29.075Z,12.23
2023-01-17T04:09:56.929Z,8.68
2023-01-17T04:12:24.166Z,13.32
2023-01-17T04:14:51.866Z,13.90
2023-01-17T04:17:20.724Z,10.25
2023-01-17T04:19:48.136Z,7.80
2023-01-17T04:22:15.428Z,11.32
2023-01-17T04:24:42.710Z,10.02
2023-01-17T04:27:14.196Z,9.07
2023-01-17T04:29:41.582Z,17.67
2023-01-17T04:32:09.428Z,7.88
2023-01-17T04:34:36.891Z,12.00
2023-01-17T04:37:04.221Z,9.00
2023-01-17T04:39:31.590Z,6.50
2023-01-17T04:41:59.350Z,12.35
2023-01-17T04:44:26.493Z,17.20
2023-01-17T04:46:54.063Z,6.35
2023-01-17T04:49:21.682Z,6.43
2023-01-17T04:51:48.876Z,8.55
2023-01-17T04:54:16.231Z,7.88
2023-01-17T04:56:44.547Z,6.78
2023-01-17T04:59:11.887Z,11.30
2023-01-17T05:01:39.340Z,8.48
2023-01-17T05:04:06.734Z,11.13
2023-01-17T05:06:34.049Z,11.32
2023-01-17T05:09:03.047Z,10.98
2023-01-17T05:11:30.393Z,7.65
2023-01-17T05:13:58.160Z,7.72
2023-01-17T05:16:25.731Z,9.77
2023-01-17T05:18:53.686Z,16.25
2023-01-17T05:21:21.991Z,4.70
2023-01-17T05:23:49.365Z,9.73
2023-01-17T05:26:16.989Z,7.47
2023-01-17T05:28:44.262Z,21.77
2023-01-17T05:31:11.623Z,10.43
2023-01-17T05:33:38.914Z,11.35
2023-01-17T05:36:06.621Z,9.02
2023-01-17T05:38:33.943Z,6.35
2023-01-17T05:41:02.141Z,6.63
2023-01-17T05:43:29.646Z,8.48
2023-01-17T05:45:57.200Z,12.13
2023-01-17T05:48:24.580Z,11.98
2023-01-17T05:50:52.254Z,7.78
2023-01-17T05:53:19.985Z,8.77
2023-01-17T05:55:48.215Z,9.90
2023-01-17T05:58:21.863Z,9.65
2023-01-17T06:00:49.562Z,8.18
2023-01-17T06:03:17.356Z,8.20
2023-01-17T06:05:45.283Z,8.40
2023-01-17T06:08:12.595Z,12.52
2023-01-17T06:10:39.974Z,9.45
2023-01-17T06:13:13.599Z,10.38
2023-01-17T06:15:41.392Z,15.80
2023-01-17T06:18:13.740Z,12.60
2023-01-17T06:20:41.359Z,10.65
2023-01-17T06:23:12.163Z,11.88
2023-01-17T06:25:43.592Z,7.80
2023-01-17T06:28:13.194Z,9.38
2023-01-17T06:30:41.106Z,11.55
2023-01-17T06:33:08.699Z,6.57
2023-01-17T06:35:37.613Z,10.38
2023-01-17T06:38:04.946Z,10.40
2023-01-17T06:40:32.288Z,13.07
2023-01-17T06:43:01.754Z,7.85
2023-01-17T06:45:30.034Z,14.30
2023-01-17T06:47:59.234Z,12.75
2023-01-17T06:50:27.186Z,13.95
2023-01-17T06:52:58.465Z,12.30
2023-01-17T06:55:28.830Z,14.15
2023-01-17T06:57:57.761Z,10.38
2023-01-17T07:00:29.476Z,10.30
2023-01-17T07:02:57.046Z,9.63
2023-01-17T07:05:24.964Z,16.35
2023-01-17T07:07:53.587Z,11.68
2023-01-17T07:10:21.317Z,13.13
2023-01-17T07:12:48.699Z,9.90
2023-01-17T07:15:16.146Z,13.98
2023-01-17T07:17:43.427Z,7.38
2023-01-17T07:20:11.030Z,18.48
2023-01-17T07:22:38.469Z,13.07
2023-01-17T07:25:06.308Z,12.32
2023-01-17T07:27:35.041Z,10.48
2023-01-17T07:30:02.440Z,14.57
2023-01-17T07:32:29.869Z,12.60
2023-01-17T07:34:58.123Z,13.80
2023-01-17T07:37:26.413Z,9.07
2023-01-17T07:39:54.638Z,17.23
2023-01-17T07:42:24.223Z,15.30
2023-01-17T07:44:51.785Z,24.13
2023-01-17T07:47:20.269Z,15.43
2023-01-17T07:49:47.638Z,12.07
2023-01-17T07:52:17.412Z,11.18
2023-01-17T07:54:45.408Z,13.38
2023-01-17T07:57:12.795Z,11.35
2023-01-17T07:59:40.585Z,13.88
2023-01-17T08:02:17.875Z,10.63
2023-01-17T08:04:45.604Z,12.55
2023-01-17T08:07:14.055Z,20.75
2023-01-17T08:09:42.774Z,11.77
2023-01-17T08:12:10.680Z,13.65
2023-01-17T08:14:37.965Z,15.70
2023-01-17T08:17:14.833Z,11.90
2023-01-17T08:19:42.251Z,18.63
2023-01-17T08:22:09.592Z,11.13
2023-01-17T08:24:37.555Z,13.05
2023-01-17T08:27:05.027Z,11.15
2023-01-17T08:29:32.322Z,15.82
2023-01-17T08:31:59.695Z,13.50
2023-01-17T08:34:27.204Z,11.65
2023-01-17T08:36:54.562Z,11.10
2023-01-17T08:39:22.171Z,11.35
2023-01-17T08:41:49.565Z,44.60
2023-01-17T08:44:16.937Z,48.25
2023-01-17T08:46:44.348Z,13.93
2023-01-17T08:49:12.647Z,14.40
2023-01-17T08:51:40.454Z,19.90
2023-01-17T08:54:09.554Z,13.88
2023-01-17T08:56:37.064Z,13.60
2023-01-17T08:59:04.390Z,11.32
2023-01-17T09:01:41.673Z,14.90
2023-01-17T09:04:10.995Z,18.30
2023-01-17T09:06:39.920Z,22.90
2023-01-17T09:09:08.432Z,25.77
2023-01-17T09:11:35.876Z,19.83
2023-01-17T09:14:03.629Z,18.38
2023-01-17T09:16:31.257Z,24.38
2023-01-17T09:18:59.003Z,18.30
2023-01-17T09:21:27.112Z,17.95
2023-01-17T09:23:55.956Z,15.50
2023-01-17T09:26:26.674Z,17.30
2023-01-17T09:28:54.924Z,10.60
2023-01-17T09:31:23.566Z,10.25
2023-01-17T09:33:52.034Z,17.42
2023-01-17T09:36:20.218Z,17.08
2023-01-17T09:38:47.893Z,14.20
2023-01-17T09:41:35.013Z,15.30
2023-01-17T09:44:02.744Z,10.73
2023-01-17T09:46:37.290Z,10.90
2023-01-17T09:49:28.951Z,11.15
2023-01-17T09:51:56.265Z,7.85
2023-01-17T09:54:30.652Z,12.77
2023-01-17T09:57:09.637Z,13.80
2023-01-17T10:00:02.074Z,10.93
2023-01-17T10:02:34.415Z,9.52
2023-01-17T10:05:28.528Z,12.77
2023-01-17T10:08:08.764Z,15.75
2023-01-17T10:10:52.085Z,30.42
2023-01-17T10:13:33.151Z,15.90
2023-01-17T10:16:10.151Z,20.52
2023-01-17T10:18:59.351Z,23.73
2023-01-17T10:21:49.486Z,22.48
2023-01-17T10:24:58.990Z,22.75
2023-01-17T10:27:32.498Z,23.85
2023-01-17T10:30:03.355Z,36.15
2023-01-17T10:32:33.556Z,34.97
2023-01-17T10:35:06.120Z,27.40
2023-01-17T10:37:40.996Z,26.17
2023-01-17T10:40:18.038Z,33.10
2023-01-17T10:42:57.595Z,26.88
2023-01-17T10:45:29.298Z,29.88
2023-01-17T10:48:09.863Z,26.33
2023-01-17T10:50:58.809Z,32.83
2023-01-17T10:53:35.115Z,34.13
2023-01-17T10:56:03.335Z,39.42
2023-01-17T10:58:31.768Z,28.27
2023-01-17T11:01:02.337Z,30.55
2023-01-17T11:03:29.813Z,36.53
2023-01-17T11:06:16.083Z,36.03
2023-01-17T11:08:53.684Z,39.17
2023-01-17T11:11:33.176Z,44.75
2023-01-17T11:14:06.496Z,43.08
2023-01-17T11:16:34.101Z,49.25
2023-01-17T11:19:27.654Z,101.85
2023-01-17T11:22:04.968Z,37.58
2023-01-17T11:24:36.395Z,34.75
2023-01-17T11:27:08.205Z,36.47
2023-01-17T11:29:40.404Z,32.60
2023-01-17T11:32:31.119Z,29.02
2023-01-17T11:35:21.226Z,27.52
2023-01-17T11:37:50.924Z,28.48
2023-01-17T11:40:25.957Z,32.65
2023-01-17T11:43:14.212Z,29.00
2023-01-17T11:45:42.162Z,40.20
2023-01-17T11:48:10.027Z,35.38
2023-01-17T11:50:38.865Z,34.63
2023-01-17T11:53:20.511Z,35.22
2023-01-17T11:55:59.461Z,33.13
2023-01-17T11:58:28.281Z,25.40
2023-01-17T12:01:21.034Z,26.58
2023-01-17T12:03:56.980Z,27.00
2023-01-17T12:07:05.237Z,29.15
2023-01-17T12:09:47.468Z,30.85
2023-01-17T12:13:11.903Z,33.65
2023-01-17T12:15:58.111Z,30.77
2023-01-17T12:18:33.597Z,30.50
2023-01-17T12:21:09.965Z,30.92
2023-01-17T12:23:56.403Z,31.15
2023-01-17T12:26:40.222Z,26.38
2023-01-17T12:29:33.305Z,36.53
2023-01-17T12:32:21.468Z,31.25
2023-01-17T12:35:08.019Z,30.92
2023-01-17T12:37:39.956Z,23.08
2023-01-17T12:40:15.018Z,29.55
2023-01-17T12:42:49.647Z,27.73
2023-01-17T12:45:34.473Z,28.73
2023-01-17T12:48:13.186Z,22.60
2023-01-17T12:50:57.373Z,28.60
2023-01-17T12:53:59.200Z,22.42
2023-01-17T12:56:40.484Z,30.85
2023-01-17T12:59:28.720Z,29.80
2023-01-17T13:01:58.362Z,29.60
2023-01-17T13:04:58.711Z,25.55
2023-01-17T13:07:32.681Z,35.25
2023-01-17T13:10:20.379Z,27.23
2023-01-17T13:15:22.920Z,31.30
2023-01-17T13:17:54.899Z,26.77
2023-01-17T13:20:36.644Z,27.83
2023-01-17T13:23:15.243Z,25.88
2023-01-17T13:25:50.829Z,24.38
2023-01-17T13:28:21.888Z,29.35
2023-01-17T13:31:01.258Z,26.70
2023-01-17T13:33:34.416Z,21.05
2023-01-17T13:36:42.973Z,32.17
2023-01-17T13:39:17.511Z,25.38
2023-01-17T13:41:52.791Z,23.00
2023-01-17T13:44:24.371Z,38.15
2023-01-17T13:47:06.810Z,28.85
2023-01-17T13:49:38.442Z,29.05
2023-01-17T13:52:10.878Z,32.70
2023-01-17T13:54:44.977Z,23.20
2023-01-17T13:57:27.912Z,29.23
2023-01-17T13:59:59.204Z,25.90
2023-01-17T14:02:32.565Z,25.55
2023-01-17T14:05:15.089Z,38.15
2023-01-17T14:08:01.209Z,30.02
2023-01-17T14:10:37.689Z,43.72
2023-01-17T14:13:24.537Z,31.48
2023-01-17T14:15:52.361Z,32.00
2023-01-17T14:18:38.160Z,26.23
2023-01-17T14:21:07.861Z,24.80
2023-01-17T14:24:04.102Z,38.85
2023-01-17T14:26:43.113Z,31.83
2023-01-17T14:29:48.049Z,33.53
2023-01-17T14:32:24.513Z,30.58
2023-01-17T14:34:53.434Z,48.13
2023-01-17T14:37:27.329Z,44.28
2023-01-17T14:39:54.832Z,35.28
2023-01-17T14:42:25.121Z,37.72
2023-01-17T14:45:06.766Z,35.95
2023-01-17T14:47:39.286Z,43.25
2023-01-17T14:50:18.693Z,42.00
2023-01-17T14:52:46.491Z,39.97
2023-01-17T14:55:20.005Z,42.42
2023-01-17T14:57:57.246Z,50.78
2023-01-17T15:00:28.600Z,47.58
2023-01-17T15:02:59.308Z,47.22
2023-01-17T15:05:28.973Z,41.15
2023-01-17T15:07:58.129Z,52.25
2023-01-17T15:10:33.930Z,53.40
2023-01-17T15:13:09.103Z,40.42
2023-01-17T15:15:39.728Z,37.67
2023-01-17T15:18:19.481Z,37.35
2023-01-17T15:21:02.219Z,35.15
2023-01-17T15:23:34.508Z,34.30
2023-01-17T15:26:04.555Z,40.00
2023-01-17T15:28:34.349Z,33.03
2023-01-17T15:31:13.277Z,46.42
2023-01-17T15:33:44.407Z,34.58
2023-01-17T15:36:22.078Z,45.42
2023-01-17T15:39:00.174Z,37.20
2023-01-17T15:41:35.044Z,32.88
2023-01-17T15:44:03.258Z,28.88
2023-01-17T15:46:42.731Z,27.63
2023-01-17T15:49:23.954Z,33.95
2023-01-17T15:51:54.814Z,30.25
2023-01-17T15:54:47.842Z,29.55
2023-01-17T15:57:27.153Z,32.67
2023-01-17T16:00:15.883Z,21.90
2023-01-17T16:02:47.160Z,23.15
2023-01-17T16:05:31.139Z,24.60
2023-01-17T16:08:25.966Z,32.95
2023-01-17T16:10:55.395Z,38.42
2023-01-17T16:13:23.177Z,36.45
2023-01-17T16:15:50.808Z,17.92
2023-01-17T16:18:20.592Z,31.92
2023-01-17T16:20:53.263Z,28.42
2023-01-17T16:23:20.973Z,32.50
2023-01-17T16:25:48.439Z,33.05
2023-01-17T16:28:15.915Z,54.10
2023-01-17T16:30:45.249Z,58.10
2023-01-17T16:33:13.497Z,64.05
2023-01-17T16:35:43.052Z,58.60
2023-01-17T16:38:15.641Z,42.88
2023-01-17T16:40:44.929Z,56.72
2023-01-17T16:43:14.249Z,40.97
2023-01-17T16:45:43.815Z,37.85
2023-01-17T16:48:12.585Z,43.20
2023-01-17T16:50:50.338Z,38.55
2023-01-17T16:53:24.809Z,33.13
2023-01-17T16:55:55.956Z,40.15
2023-01-17T16:58:23.606Z,44.78
2023-01-17T17:00:50.939Z,35.83
2023-01-17T17:03:22.645Z,39.85
2023-01-17T17:05:58.727Z,36.88
2023-01-17T17:08:28.703Z,31.60
2023-01-17T17:11:12.953Z,45.20
2023-01-17T17:13:42.504Z,61.78
2023-01-17T17:16:14.989Z,45.88
2023-01-17T17:18:43.957Z,44.28
2023-01-17T17:21:11.978Z,53.10
2023-01-17T17:23:39.761Z,55.90
2023-01-17T17:26:07.206Z,54.90
2023-01-17T17:28:35.765Z,85.70
2023-01-17T17:31:11.305Z,129.23
2023-01-17T17:33:39.192Z,39.88
2023-01-17T17:36:08.147Z,29.98
2023-01-17T17:38:36.173Z,26.73
2023-01-17T17:41:10.209Z,49.75
2023-01-17T17:43:39.064Z,50.33
2023-01-17T17:46:06.719Z,44.70
2023-01-17T17:48:34.414Z,38.75
2023-01-17T17:51:02.383Z,55.70
2023-01-17T17:53:30.027Z,42.75
2023-01-17T17:56:06.719Z,51.55
2023-01-17T18:01:04.249Z,61.17
2023-01-17T18:03:33.633Z,43.80
2023-01-17T18:06:06.201Z,40.15
2023-01-17T18:08:34.646Z,35.92
2023-01-17T18:11:08.090Z,27.95
2023-01-17T18:13:35.440Z,44.25
2023-01-17T18:16:09.215Z,31.85
2023-01-17T18:18:41.829Z,29.80
2023-01-17T18:21:13.547Z,29.17
2023-01-17T18:23:43.433Z,31.65
2023-01-17T18:26:20.099Z,44.40
2023-01-17T18:28:48.270Z,35.42
2023-01-17T18:31:16.202Z,57.22
2023-01-17T18:33:44.089Z,47.78
2023-01-17T18:36:13.095Z,53.17
2023-01-17T18:38:46.495Z,42.30
2023-01-17T18:41:21.983Z,46.35
2023-01-17T18:43:49.846Z,38.75
2023-01-17T18:46:19.287Z,33.80
2023-01-17T18:48:47.149Z,38.88
2023-01-17T18:51:17.490Z,41.67
2023-01-17T18:53:46.252Z,39.22
2023-01-17T18:56:16.205Z,31.52
2023-01-17T18:58:46.469Z,33.83
2023-01-17T19:01:18.733Z,42.47
2023-01-17T19:03:48.968Z,42.08
2023-01-17T19:06:20.103Z,37.80
2023-01-17T19:08:49.283Z,34.78
2023-01-17T19:11:17.390Z,46.40
2023-01-17T19:13:45.046Z,49.60
2023-01-17T19:16:19.972Z,43.17
2023-01-17T19:18:47.646Z,49.97
2023-01-17T19:21:18.749Z,56.28
2023-01-17T19:23:46.761Z,50.70
2023-01-17T19:26:17.124Z,60.42
2023-01-17T19:28:47.095Z,47.35
2023-01-17T19:31:23.253Z,41.83
2023-01-17T19:33:53.484Z,37.63
2023-01-17T19:36:26.583Z,47.75
2023-01-17T19:39:04.415Z,37.75
2023-01-17T19:41:35.829Z,47.67
2023-01-17T19:44:08.312Z,60.58
2023-01-17T19:46:36.780Z,42.88
2023-01-17T19:49:07.423Z,45.03
2023-01-17T19:51:34.998Z,43.22
2023-01-17T19:54:04.050Z,56.17
2023-01-17T19:56:31.613Z,44.53
2023-01-17T19:59:01.670Z,52.40
2023-01-17T20:01:33.600Z,50.72
2023-01-17T20:04:02.265Z,42.33
2023-01-17T20:06:32.209Z,52.65
2023-01-17T20:08:59.792Z,48.28
2023-01-17T20:11:29.241Z,55.55
2023-01-17T20:13:58.136Z,53.97
2023-01-17T20:16:27.876Z,46.15
2023-01-17T20:18:55.722Z,48.60
2023-01-17T20:21:25.221Z,49.50
2023-01-17T20:23:54.708Z,47.42
2023-01-17T20:26:25.250Z,47.28
2023-01-17T20:28:53.263Z,53.85
2023-01-17T20:31:22.997Z,46.97
2023-01-17T20:33:51.211Z,51.65
2023-01-17T20:36:20.254Z,49.38
2023-01-17T20:38:48.911Z,53.58
2023-01-17T20:41:24.671Z,53.05
2023-01-17T20:43:54.439Z,52.00
2023-01-17T20:46:24.007Z,39.67
2023-01-17T20:48:53.542Z,44.85
2023-01-17T20:51:21.990Z,88.00
2023-01-17T20:53:58.034Z,44.42
2023-01-17T20:56:26.193Z,48.78
2023-01-17T20:58:54.780Z,52.28
2023-01-17T21:01:23.315Z,46.45
2023-01-17T21:03:53.776Z,37.17
2023-01-17T21:06:22.739Z,44.42
2023-01-17T21:08:51.650Z,36.95
2023-01-17T21:11:25.356Z,37.65
2023-01-17T21:13:52.918Z,43.17
2023-01-17T21:16:23.107Z,32.70
2023-01-17T21:18:51.766Z,42.00
2023-01-17T21:21:24.409Z,57.20
2023-01-17T21:23:54.456Z,47.38
2023-01-17T21:26:25.630Z,40.28
2023-01-17T21:28:53.678Z,46.53
2023-01-17T21:31:26.760Z,43.92
2023-01-17T21:33:55.924Z,35.50
2023-01-17T21:36:25.815Z,35.50
2023-01-17T21:38:56.953Z,32.00
2023-01-17T21:41:28.687Z,46.92
2023-01-17T21:43:58.783Z,39.20
2023-01-17T21:46:27.805Z,31.90
2023-01-17T21:48:56.739Z,34.42
2023-01-17T21:51:25.032Z,40.45
2023-01-17T21:53:52.292Z,35.63
2023-01-17T21:56:38.323Z,40.53
2023-01-17T21:59:05.617Z,41.70
2023-01-17T22:01:33.420Z,38.83
2023-01-17T22:04:02.902Z,34.83
2023-01-17T22:06:41.082Z,60.70
2023-01-17T22:09:08.410Z,34.20
2023-01-17T22:11:36.668Z,36.40
2023-01-17T22:14:04.629Z,36.53
2023-01-17T22:16:32.190Z,36.00
2023-01-17T22:18:59.430Z,40.33
2023-01-17T22:21:28.498Z,30.17
2023-01-17T22:23:58.187Z,31.52
2023-01-17T22:26:30.599Z,19.90
2023-01-17T22:29:02.295Z,31.52
2023-01-17T22:31:30.399Z,27.92
2023-01-17T22:34:00.862Z,41.53
2023-01-17T22:36:29.811Z,36.33
2023-01-17T22:38:57.535Z,40.13
2023-01-17T22:41:31.182Z,40.15
2023-01-17T22:44:02.067Z,36.90
2023-01-17T22:46:31.645Z,40.40
2023-01-17T22:48:59.766Z,28.25
2023-01-17T22:51:28.422Z,31.17
2023-01-17T22:53:58.017Z,35.72
2023-01-17T22:56:28.213Z,29.70
2023-01-17T22:58:55.584Z,30.52
2023-01-17T23:01:26.321Z,28.45
2023-01-17T23:03:56.842Z,31.77
2023-01-17T23:06:28.769Z,30.80
2023-01-17T23:08:58.858Z,22.83
2023-01-17T23:11:43.198Z,23.50
2023-01-17T23:14:12.158Z,41.47
2023-01-17T23:17:02.082Z,27.20
2023-01-17T23:19:35.787Z,53.33
2023-01-17T23:22:17.301Z,33.63
2023-01-17T23:24:52.009Z,23.88
2023-01-17T23:27:48.129Z,27.50
2023-01-17T23:30:24.966Z,33.13
2023-01-17T23:35:22.377Z,41.65
2023-01-17T23:38:08.593Z,25.23
2023-01-17T23:40:37.682Z,28.48
2023-01-17T23:43:23.316Z,36.70
2023-01-17T23:45:53.087Z,26.98
2023-01-17T23:48:26.256Z,27.98
2023-01-17T23:51:08.356Z,29.35
2023-01-17T23:53:38.036Z,21.92
2023-01-17T23:56:10.768Z,22.60
2023-01-17T23:58:38.383Z,17.13
